Time;durP1;ratioP1;P1;durP2;ratioP2;P2;SDS_P1;SDS_P2;PMS_P1;PMS_P2;Temp;Humidity;BMP_temperature;BMP_pressure;BME280_temperature;BME280_humidity;BME280_pressure;Samples;Min_cycle;Max_cycle;Signal;HPM_P1;HPM_P2
2021/06/24 00:01:34;;;;;;;15.63;4.10;;;;;;;;;;5072605;28;20107;-64
2021/06/24 00:04:01;;;;;;;20.95;5.03;;;;;;;;;;5074614;28;20036;-64
2021/06/24 00:06:27;;;;;;;25.05;4.95;;;;;;;;;;5076830;28;20025;-65
2021/06/24 00:08:54;;;;;;;20.63;4.78;;;;;;;;;;5057193;28;20448;-63
2021/06/24 00:11:20;;;;;;;23.55;4.68;;;;;;;;;;5069944;28;20642;-65
2021/06/24 00:13:46;;;;;;;20.88;4.53;;;;;;;;;;5074081;28;20037;-66
2021/06/24 00:16:13;;;;;;;18.95;5.30;;;;;;;;;;5074023;28;20096;-66
2021/06/24 00:18:39;;;;;;;19.85;5.35;;;;;;;;;;5071564;28;20047;-63
2021/06/24 00:21:06;;;;;;;19.20;4.50;;;;;;;;;;5073808;28;20443;-63
2021/06/24 00:23:32;;;;;;;23.15;5.38;;;;;;;;;;5073684;28;20028;-64
2021/06/24 00:25:59;;;;;;;19.45;5.15;;;;;;;;;;5074230;28;20020;-64
2021/06/24 00:28:27;;;;;;;26.35;5.13;;;;;;;;;;5075620;28;20085;-67
2021/06/24 00:30:55;;;;;;;17.88;4.60;;;;;;;;;;5073052;28;20058;-67
2021/06/24 00:33:21;;;;;;;24.38;5.30;;;;;;;;;;5073214;28;20134;-66
2021/06/24 00:35:47;;;;;;;20.45;4.85;;;;;;;;;;5074205;28;20388;-64
2021/06/24 00:38:14;;;;;;;24.92;5.15;;;;;;;;;;5073309;28;20059;-65
2021/06/24 00:40:40;;;;;;;17.67;4.88;;;;;;;;;;5072961;28;20050;-63
2021/06/24 00:43:08;;;;;;;16.85;5.13;;;;;;;;;;5072794;28;20040;-65
2021/06/24 00:45:34;;;;;;;20.75;5.05;;;;;;;;;;5073077;28;20507;-67
2021/06/24 00:48:00;;;;;;;24.13;4.70;;;;;;;;;;5077315;28;20028;-65
2021/06/24 00:50:27;;;;;;;21.10;4.85;;;;;;;;;;5055294;28;20115;-65
2021/06/24 00:52:53;;;;;;;22.67;5.43;;;;;;;;;;5073128;28;20029;-66
2021/06/24 00:55:39;;;;;;;21.00;5.57;;;;;;;;;;5072536;28;20063;-63
2021/06/24 00:58:05;;;;;;;20.27;4.90;;;;;;;;;;5072559;28;20120;-66
2021/06/24 01:00:31;;;;;;;22.70;4.95;;;;;;;;;;5072309;28;20024;-66
2021/06/24 01:02:57;;;;;;;22.90;5.25;;;;;;;;;;5072900;28;20051;-65
2021/06/24 01:05:23;;;;;;;22.02;5.10;;;;;;;;;;5081449;28;20024;-67
2021/06/24 01:07:49;;;;;;;23.08;5.05;;;;;;;;;;5078205;28;20036;-66
2021/06/24 01:10:15;;;;;;;20.15;5.03;;;;;;;;;;5072912;28;20091;-66
2021/06/24 01:12:41;;;;;;;17.95;4.85;;;;;;;;;;5072845;28;20474;-63
2021/06/24 01:15:08;;;;;;;26.02;5.47;;;;;;;;;;5072330;28;20028;-63
2021/06/24 01:17:34;;;;;;;21.77;5.15;;;;;;;;;;5072097;28;20029;-67
2021/06/24 01:20:00;;;;;;;21.58;4.43;;;;;;;;;;5073963;28;20093;-64
2021/06/24 01:22:26;;;;;;;20.02;4.72;;;;;;;;;;5073807;28;20037;-66
2021/06/24 01:24:52;;;;;;;20.33;5.05;;;;;;;;;;5072689;28;20021;-63
2021/06/24 01:27:18;;;;;;;22.05;4.78;;;;;;;;;;5072752;28;20433;-64
2021/06/24 01:29:44;;;;;;;16.20;4.63;;;;;;;;;;5072812;28;20055;-64
2021/06/24 01:32:10;;;;;;;14.43;4.78;;;;;;;;;;5071073;28;20032;-63
2021/06/24 01:34:38;;;;;;;17.75;4.80;;;;;;;;;;5072506;28;20017;-67
2021/06/24 01:37:05;;;;;;;22.27;5.80;;;;;;;;;;5073419;28;20024;-65
2021/06/24 01:39:32;;;;;;;23.17;5.15;;;;;;;;;;5071472;28;20103;-66
2021/06/24 01:42:16;;;;;;;20.63;5.05;;;;;;;;;;5072935;28;20394;-64
2021/06/24 01:44:42;;;;;;;21.45;5.28;;;;;;;;;;5072173;28;20032;-64
2021/06/24 01:47:11;;;;;;;23.70;5.75;;;;;;;;;;5071668;28;20024;-64
2021/06/24 01:49:38;;;;;;;20.77;5.10;;;;;;;;;;5071920;28;20032;-63
2021/06/24 01:52:04;;;;;;;27.30;5.53;;;;;;;;;;5071827;28;20024;-64
2021/06/24 01:54:31;;;;;;;18.73;5.47;;;;;;;;;;5071956;28;20030;-66
2021/06/24 01:56:57;;;;;;;26.20;5.22;;;;;;;;;;5071584;28;20031;-64
2021/06/24 01:59:23;;;;;;;26.73;5.35;;;;;;;;;;5071397;28;20047;-64
2021/06/24 02:01:49;;;;;;;21.27;5.25;;;;;;;;;;5070510;28;20067;-66
2021/06/24 02:04:15;;;;;;;20.73;5.30;;;;;;;;;;5072742;28;20055;-67
2021/06/24 02:06:48;;;;;;;22.50;5.47;;;;;;;;;;5056194;28;20021;-67
2021/06/24 02:09:15;;;;;;;17.80;5.00;;;;;;;;;;5054948;28;20115;-65
2021/06/24 02:11:41;;;;;;;21.58;5.07;;;;;;;;;;5071901;28;20124;-67
2021/06/24 02:14:07;;;;;;;20.90;5.22;;;;;;;;;;5072250;28;20024;-66
2021/06/24 02:16:33;;;;;;;23.08;5.80;;;;;;;;;;5072060;28;20450;-65
2021/06/24 02:18:59;;;;;;;13.70;4.50;;;;;;;;;;5071243;28;20040;-64
2021/06/24 02:21:25;;;;;;;19.17;5.20;;;;;;;;;;5071523;28;20043;-64
2021/06/24 02:23:51;;;;;;;23.23;5.13;;;;;;;;;;5071297;28;20419;-63
2021/06/24 02:26:21;;;;;;;26.17;5.57;;;;;;;;;;5073381;28;20492;-67
2021/06/24 02:28:51;;;;;;;17.67;4.68;;;;;;;;;;5055059;28;20059;-64
2021/06/24 02:31:17;;;;;;;25.58;5.75;;;;;;;;;;5073788;28;20031;-64
2021/06/24 02:33:44;;;;;;;25.02;5.68;;;;;;;;;;5071985;28;20041;-66
2021/06/24 02:36:11;;;;;;;26.52;5.25;;;;;;;;;;5072696;28;20382;-67
2021/06/24 02:38:37;;;;;;;24.08;5.78;;;;;;;;;;5061920;28;20477;-64
2021/06/24 02:41:03;;;;;;;21.65;5.15;;;;;;;;;;5069642;28;20054;-64
2021/06/24 02:43:29;;;;;;;18.85;5.22;;;;;;;;;;5065833;28;20032;-67
2021/06/24 02:45:55;;;;;;;23.30;5.30;;;;;;;;;;5071821;28;20021;-67
2021/06/24 02:48:21;;;;;;;20.25;5.07;;;;;;;;;;5070739;28;20025;-63
2021/06/24 02:50:48;;;;;;;26.30;6.30;;;;;;;;;;5052764;28;20389;-64
2021/06/24 02:53:14;;;;;;;22.98;5.82;;;;;;;;;;5071116;28;20020;-65
2021/06/24 02:55:41;;;;;;;26.23;6.13;;;;;;;;;;5071796;28;20433;-64
2021/06/24 02:58:07;;;;;;;20.92;5.60;;;;;;;;;;5071088;28;20537;-63
2021/06/24 03:00:33;;;;;;;20.17;5.60;;;;;;;;;;5071261;28;20064;-64
2021/06/24 03:02:59;;;;;;;20.13;5.15;;;;;;;;;;5070597;28;20040;-66
2021/06/24 03:05:25;;;;;;;16.70;5.60;;;;;;;;;;5071225;28;20535;-66
2021/06/24 03:07:51;;;;;;;22.27;5.72;;;;;;;;;;5060395;28;20032;-67
2021/06/24 03:10:18;;;;;;;21.20;6.45;;;;;;;;;;5074268;28;20031;-66
2021/06/24 03:12:45;;;;;;;21.70;5.55;;;;;;;;;;5074981;28;20029;-66
2021/06/24 03:15:11;;;;;;;20.48;5.45;;;;;;;;;;5075292;28;20024;-65
2021/06/24 03:17:37;;;;;;;19.05;4.85;;;;;;;;;;5075112;28;20025;-63
2021/06/24 03:20:05;;;;;;;21.90;5.53;;;;;;;;;;5056437;28;20060;-67
2021/06/24 03:22:31;;;;;;;21.40;5.80;;;;;;;;;;5074740;28;20498;-64
2021/06/24 03:24:59;;;;;;;22.67;5.53;;;;;;;;;;5074394;28;20024;-63
2021/06/24 03:27:26;;;;;;;26.85;5.32;;;;;;;;;;5077230;28;20021;-67
2021/06/24 03:29:52;;;;;;;20.50;4.80;;;;;;;;;;5059371;28;20033;-63
2021/06/24 03:32:19;;;;;;;24.83;5.72;;;;;;;;;;5075140;28;20040;-64
2021/06/24 03:34:45;;;;;;;21.30;5.10;;;;;;;;;;5074654;28;20134;-66
2021/06/24 03:37:11;;;;;;;21.77;5.63;;;;;;;;;;5074673;28;20063;-63
2021/06/24 03:39:38;;;;;;;21.80;5.68;;;;;;;;;;5064371;28;20382;-65
2021/06/24 03:42:04;;;;;;;22.30;5.45;;;;;;;;;;5075095;28;20091;-67
2021/06/24 03:44:30;;;;;;;24.65;5.28;;;;;;;;;;5080009;28;20044;-64
2021/06/24 03:46:56;;;;;;;23.67;5.15;;;;;;;;;;5074599;28;20032;-67
2021/06/24 03:49:22;;;;;;;19.38;5.82;;;;;;;;;;5074258;28;20443;-63
2021/06/24 03:51:48;;;;;;;18.10;5.32;;;;;;;;;;5072209;28;20032;-65
2021/06/24 03:54:14;;;;;;;22.70;6.22;;;;;;;;;;5074544;28;20428;-67
2021/06/24 03:56:41;;;;;;;19.92;5.38;;;;;;;;;;5076036;28;20017;-64
2021/06/24 03:59:07;;;;;;;23.10;5.68;;;;;;;;;;5074344;28;20077;-62
2021/06/24 04:01:33;;;;;;;29.85;5.68;;;;;;;;;;5072251;28;20028;-67
2021/06/24 04:03:59;;;;;;;20.05;5.72;;;;;;;;;;5074915;28;20025;-64
2021/06/24 04:06:28;;;;;;;25.45;6.18;;;;;;;;;;5056864;28;20024;-63
2021/06/24 04:08:54;;;;;;;22.40;6.30;;;;;;;;;;5073069;28;20021;-67
2021/06/24 04:11:20;;;;;;;30.48;6.78;;;;;;;;;;5074080;28;20039;-67
2021/06/24 04:13:46;;;;;;;36.97;6.55;;;;;;;;;;5072640;28;20039;-62
2021/06/24 04:16:13;;;;;;;21.27;5.93;;;;;;;;;;5074041;28;20073;-63
2021/06/24 04:18:39;;;;;;;24.65;5.75;;;;;;;;;;5065954;28;20526;-64
2021/06/24 04:21:05;;;;;;;18.77;5.55;;;;;;;;;;5071028;28;20028;-64
2021/06/24 04:23:31;;;;;;;22.38;6.60;;;;;;;;;;5069317;28;20031;-63
2021/06/24 04:25:57;;;;;;;19.42;5.70;;;;;;;;;;5071856;28;20028;-66
2021/06/24 04:28:23;;;;;;;30.58;6.30;;;;;;;;;;5070355;28;20499;-66
2021/06/24 04:30:50;;;;;;;23.13;6.18;;;;;;;;;;5063380;28;20378;-63
2021/06/24 04:33:16;;;;;;;28.10;6.82;;;;;;;;;;5071601;28;20042;-67
2021/06/24 04:35:42;;;;;;;27.27;6.22;;;;;;;;;;5070387;28;20039;-66
2021/06/24 04:38:08;;;;;;;28.83;6.88;;;;;;;;;;5066272;28;20030;-65
2021/06/24 04:40:34;;;;;;;31.35;7.13;;;;;;;;;;5068004;28;20031;-64
2021/06/24 04:43:00;;;;;;;28.75;6.53;;;;;;;;;;5069540;28;20036;-68
2021/06/24 04:45:26;;;;;;;33.08;7.22;;;;;;;;;;5053100;28;20085;-65
2021/06/24 04:47:53;;;;;;;26.15;7.63;;;;;;;;;;5049965;28;20410;-63
2021/06/24 04:50:19;;;;;;;31.65;7.38;;;;;;;;;;5049164;28;20123;-60
2021/06/24 04:52:45;;;;;;;22.58;7.75;;;;;;;;;;5067350;28;20550;-63
2021/06/24 04:55:12;;;;;;;22.30;7.60;;;;;;;;;;5065782;28;20016;-66
2021/06/24 04:57:39;;;;;;;25.73;8.27;;;;;;;;;;5071599;28;20035;-64
2021/06/24 05:00:05;;;;;;;33.85;8.88;;;;;;;;;;5069227;28;20024;-66
2021/06/24 05:02:32;;;;;;;56.33;10.40;;;;;;;;;;5072447;28;20076;-64
2021/06/24 05:04:58;;;;;;;37.47;9.50;;;;;;;;;;5064540;28;20028;-64
2021/06/24 05:07:24;;;;;;;42.17;10.23;;;;;;;;;;5076961;28;20039;-64
2021/06/24 05:09:50;;;;;;;28.25;8.95;;;;;;;;;;5072805;28;20032;-64
2021/06/24 05:12:16;;;;;;;32.53;9.25;;;;;;;;;;5068716;28;20029;-67
2021/06/24 05:14:42;;;;;;;36.15;8.60;;;;;;;;;;5075138;28;20081;-65
2021/06/24 05:17:15;;;;;;;28.75;9.88;;;;;;;;;;5070211;28;20036;-67
2021/06/24 05:19:42;;;;;;;33.97;10.18;;;;;;;;;;5074122;28;20394;-66
2021/06/24 05:22:09;;;;;;;37.00;9.93;;;;;;;;;;5066052;28;20044;-65
2021/06/24 05:24:41;;;;;;;46.13;9.68;;;;;;;;;;5072020;28;20389;-68
2021/06/24 05:27:08;;;;;;;49.20;10.43;;;;;;;;;;5077865;28;20016;-67
2021/06/24 05:29:34;;;;;;;46.13;9.20;;;;;;;;;;5072048;28;20150;-63
2021/06/24 05:32:00;;;;;;;45.63;9.80;;;;;;;;;;5061645;28;20366;-64
2021/06/24 05:34:26;;;;;;;37.67;9.38;;;;;;;;;;5074460;28;20485;-66
2021/06/24 05:36:52;;;;;;;42.33;10.43;;;;;;;;;;5068750;28;20033;-67
2021/06/24 05:39:18;;;;;;;54.08;11.32;;;;;;;;;;5066495;28;20430;-65
2021/06/24 05:41:45;;;;;;;41.90;9.57;;;;;;;;;;5055946;28;20041;-65
2021/06/24 05:44:12;;;;;;;41.78;10.38;;;;;;;;;;5061109;28;20064;-67
2021/06/24 05:46:38;;;;;;;42.70;11.57;;;;;;;;;;5069057;28;20033;-71
2021/06/24 05:49:04;;;;;;;87.70;11.93;;;;;;;;;;5067597;28;20017;-67
2021/06/24 05:51:30;;;;;;;62.28;11.60;;;;;;;;;;5072861;28;20021;-67
2021/06/24 05:53:56;;;;;;;48.88;10.80;;;;;;;;;;5069233;28;20169;-68
2021/06/24 05:56:24;;;;;;;51.38;11.13;;;;;;;;;;5066892;28;20507;-66
2021/06/24 05:58:50;;;;;;;45.50;10.63;;;;;;;;;;5078990;28;20036;-65
2021/06/24 06:01:17;;;;;;;61.78;11.60;;;;;;;;;;5069447;28;20540;-77
2021/06/24 06:03:43;;;;;;;64.40;12.40;;;;;;;;;;5059567;28;20040;-74
2021/06/24 06:06:09;;;;;;;44.13;11.68;;;;;;;;;;5055428;28;20083;-67
2021/06/24 06:08:35;;;;;;;26.17;10.35;;;;;;;;;;5075495;28;20032;-72
2021/06/24 06:11:01;;;;;;;41.50;10.70;;;;;;;;;;5068704;28;20021;-71
2021/06/24 06:13:27;;;;;;;32.38;10.43;;;;;;;;;;5061753;28;20374;-65
2021/06/24 06:15:53;;;;;;;32.35;9.32;;;;;;;;;;5069590;28;20024;-65
2021/06/24 06:18:21;;;;;;;39.72;9.65;;;;;;;;;;5067887;28;20028;-70
2021/06/24 06:20:48;;;;;;;26.00;9.73;;;;;;;;;;5070160;28;20052;-70
2021/06/24 06:23:18;;;;;;;33.83;9.85;;;;;;;;;;5067430;28;20119;-72
2021/06/24 06:25:45;;;;;;;46.47;10.07;;;;;;;;;;5071897;28;20489;-67
2021/06/24 06:28:11;;;;;;;35.65;10.70;;;;;;;;;;5066630;28;20146;-69
2021/06/24 06:30:37;;;;;;;38.53;10.80;;;;;;;;;;5071374;28;20020;-69
2021/06/24 06:33:04;;;;;;;26.13;9.10;;;;;;;;;;5071269;28;20078;-77
2021/06/24 06:35:30;;;;;;;55.22;10.43;;;;;;;;;;5055509;28;20021;-74
2021/06/24 06:37:57;;;;;;;35.42;10.05;;;;;;;;;;5065976;28;20033;-87
2021/06/24 06:40:23;;;;;;;31.70;10.25;;;;;;;;;;5069335;28;20624;-79
2021/06/24 06:42:49;;;;;;;36.25;11.20;;;;;;;;;;5061785;28;20040;-86
2021/06/24 06:45:21;;;;;;;37.45;9.95;;;;;;;;;;5075737;28;20032;-85
2021/06/24 06:47:49;;;;;;;31.27;9.27;;;;;;;;;;5068564;28;20025;-84
2021/06/24 06:50:16;;;;;;;34.72;10.32;;;;;;;;;;5049095;28;20083;-78
2021/06/24 06:52:43;;;;;;;34.00;9.77;;;;;;;;;;5065337;28;20070;-74
2021/06/24 06:55:09;;;;;;;33.13;10.52;;;;;;;;;;5048321;28;20489;-69
2021/06/24 06:57:35;;;;;;;32.33;9.82;;;;;;;;;;5065805;28;20403;-68
2021/06/24 07:00:02;;;;;;;34.67;9.73;;;;;;;;;;5067759;28;20012;-67
2021/06/24 07:02:28;;;;;;;41.40;11.25;;;;;;;;;;5067760;28;20036;-71
2021/06/24 07:04:54;;;;;;;29.88;9.48;;;;;;;;;;5063339;28;20035;-70
2021/06/24 07:07:20;;;;;;;35.78;9.93;;;;;;;;;;5065548;28;20028;-85
2021/06/24 07:09:46;;;;;;;31.80;9.40;;;;;;;;;;5051158;28;20116;-83
2021/06/24 07:12:12;;;;;;;31.38;9.60;;;;;;;;;;5070101;28;20082;-84
2021/06/24 07:14:39;;;;;;;35.25;9.98;;;;;;;;;;5061305;28;20031;-93
2021/06/24 07:17:05;;;;;;;35.70;10.93;;;;;;;;;;5072949;28;20039;-86
2021/06/24 07:19:31;;;;;;;31.88;10.20;;;;;;;;;;5044950;28;20043;-83
2021/06/24 07:21:58;;;;;;;29.40;9.65;;;;;;;;;;5062665;28;20036;-72
2021/06/24 07:24:24;;;;;;;35.17;9.93;;;;;;;;;;5067760;28;20573;-70
2021/06/24 07:26:50;;;;;;;34.53;9.60;;;;;;;;;;5050357;28;20111;-79
2021/06/24 07:29:16;;;;;;;32.88;10.20;;;;;;;;;;5071275;28;20032;-76
2021/06/24 07:31:42;;;;;;;33.70;9.95;;;;;;;;;;5049897;28;20049;-74
2021/06/24 07:34:08;;;;;;;32.58;10.18;;;;;;;;;;5069280;28;20031;-76
2021/06/24 07:36:34;;;;;;;31.95;9.95;;;;;;;;;;5081134;28;20020;-79
2021/06/24 07:39:01;;;;;;;45.58;10.13;;;;;;;;;;5046736;28;20020;-78
2021/06/24 07:41:27;;;;;;;36.03;10.38;;;;;;;;;;5075942;28;20040;-74
2021/06/24 07:43:53;;;;;;;52.47;11.23;;;;;;;;;;5048849;28;20440;-70
2021/06/24 07:46:24;;;;;;;52.25;10.50;;;;;;;;;;5062029;28;20033;-81
2021/06/24 07:48:50;;;;;;;38.30;10.30;;;;;;;;;;5072588;28;20108;-79
2021/06/24 07:51:17;;;;;;;42.08;10.63;;;;;;;;;;5069531;28;20047;-83
2021/06/24 07:53:43;;;;;;;35.47;10.82;;;;;;;;;;5049337;28;20036;-76
2021/06/24 07:56:13;;;;;;;42.92;10.45;;;;;;;;;;5071477;28;20520;-88
2021/06/24 07:58:39;;;;;;;32.50;10.63;;;;;;;;;;5054469;28;20127;-68
2021/06/24 08:01:06;;;;;;;34.97;10.38;;;;;;;;;;5075696;28;20100;-69
2021/06/24 08:03:32;;;;;;;35.65;10.13;;;;;;;;;;5073252;28;20036;-67
2021/06/24 08:05:58;;;;;;;37.42;9.98;;;;;;;;;;5070320;28;20029;-67
2021/06/24 08:08:25;;;;;;;42.70;10.13;;;;;;;;;;5069753;28;20031;-72
2021/06/24 08:10:51;;;;;;;43.80;10.07;;;;;;;;;;5069806;28;20112;-72
2021/06/24 08:13:17;;;;;;;37.92;10.18;;;;;;;;;;5069257;28;20512;-68
2021/06/24 08:15:43;;;;;;;34.80;10.00;;;;;;;;;;5068547;28;20173;-66
2021/06/24 08:18:09;;;;;;;31.95;10.80;;;;;;;;;;5064098;28;20020;-75
2021/06/24 08:20:36;;;;;;;31.08;10.95;;;;;;;;;;5066047;28;20116;-84
2021/06/24 08:23:02;;;;;;;36.13;10.10;;;;;;;;;;5050280;28;20040;-85
2021/06/24 08:25:28;;;;;;;32.63;10.60;;;;;;;;;;5068686;28;20021;-82
2021/06/24 08:27:54;;;;;;;36.83;10.77;;;;;;;;;;5047903;28;20037;-79
2021/06/24 08:30:21;;;;;;;38.35;9.98;;;;;;;;;;5069375;28;20095;-86
2021/06/24 08:32:47;;;;;;;35.20;10.60;;;;;;;;;;5060699;28;20017;-79
2021/06/24 08:35:13;;;;;;;48.22;11.18;;;;;;;;;;5054959;28;20111;-80
2021/06/24 08:37:40;;;;;;;41.58;10.88;;;;;;;;;;5068063;28;20097;-70
2021/06/24 08:40:08;;;;;;;37.80;11.30;;;;;;;;;;5070449;28;20035;-73
2021/06/24 08:42:34;;;;;;;35.00;9.70;;;;;;;;;;5066922;28;20028;-70
2021/06/24 08:45:02;;;;;;;37.30;10.02;;;;;;;;;;5063212;28;20552;-72
2021/06/24 08:47:28;;;;;;;41.28;10.93;;;;;;;;;;5066109;28;20028;-71
2021/06/24 08:49:56;;;;;;;32.03;9.90;;;;;;;;;;5068344;28;20390;-70
2021/06/24 08:52:22;;;;;;;34.67;10.13;;;;;;;;;;5068215;28;20029;-72
2021/06/24 08:54:49;;;;;;;64.60;11.77;;;;;;;;;;5059672;28;20035;-75
2021/06/24 08:57:15;;;;;;;36.30;10.00;;;;;;;;;;5073271;28;20024;-77
2021/06/24 08:59:42;;;;;;;41.95;10.63;;;;;;;;;;5069486;28;20024;-81
2021/06/24 09:02:15;;;;;;;31.42;10.07;;;;;;;;;;5068736;28;20032;-75
2021/06/24 09:04:51;;;;;;;30.92;8.77;;;;;;;;;;5042166;28;20021;-83
2021/06/24 09:07:21;;;;;;;28.98;8.63;;;;;;;;;;5053375;28;20032;-73
2021/06/24 09:09:51;;;;;;;33.03;8.88;;;;;;;;;;5052839;28;20073;-75
2021/06/24 09:12:17;;;;;;;32.85;9.32;;;;;;;;;;5067816;28;20060;-84
2021/06/24 09:14:50;;;;;;;32.85;9.02;;;;;;;;;;5065419;28;20462;-71
2021/06/24 09:17:35;;;;;;;37.10;9.45;;;;;;;;;;5070347;28;20036;-82
2021/06/24 09:20:02;;;;;;;30.40;9.35;;;;;;;;;;5068501;28;20591;-84
2021/06/24 09:22:28;;;;;;;31.30;10.32;;;;;;;;;;5049922;28;20451;-72
2021/06/24 09:24:54;;;;;;;35.15;10.65;;;;;;;;;;5072950;28;20051;-78
2021/06/24 09:27:25;;;;;;;39.75;10.88;;;;;;;;;;5070016;28;20017;-77
2021/06/24 09:30:00;;;;;;;36.55;9.63;;;;;;;;;;5069732;28;20099;-89
2021/06/24 09:32:36;;;;;;;32.78;9.43;;;;;;;;;;5069117;28;20036;-79
2021/06/24 09:35:09;;;;;;;28.35;8.98;;;;;;;;;;5062697;28;20020;-82
2021/06/24 09:37:54;;;;;;;31.92;9.45;;;;;;;;;;5066235;28;20020;-79
2021/06/24 09:40:20;;;;;;;40.28;8.52;;;;;;;;;;5046871;28;20558;-72
2021/06/24 09:42:46;;;;;;;33.70;9.07;;;;;;;;;;5061303;28;20371;-66
2021/06/24 09:45:15;;;;;;;30.38;8.30;;;;;;;;;;5070446;28;20025;-65
2021/06/24 09:47:41;;;;;;;30.45;9.75;;;;;;;;;;5069825;28;20067;-69
2021/06/24 09:50:09;;;;;;;39.53;10.07;;;;;;;;;;5070348;28;20016;-71
2021/06/24 09:52:35;;;;;;;34.70;8.63;;;;;;;;;;5060660;28;20025;-72
2021/06/24 09:55:04;;;;;;;34.55;9.98;;;;;;;;;;5071180;28;20029;-71
2021/06/24 09:57:30;;;;;;;37.65;8.85;;;;;;;;;;5062025;28;20020;-68
2021/06/24 09:59:56;;;;;;;41.60;8.05;;;;;;;;;;5064359;28;20033;-71
2021/06/24 10:02:22;;;;;;;35.78;9.05;;;;;;;;;;5070364;28;20124;-74
2021/06/24 10:04:49;;;;;;;30.55;8.20;;;;;;;;;;5060772;28;20032;-76
2021/06/24 10:07:21;;;;;;;41.80;8.95;;;;;;;;;;5066707;28;20479;-72
2021/06/24 10:09:47;;;;;;;42.00;8.87;;;;;;;;;;5071074;28;20029;-70
2021/06/24 10:12:18;;;;;;;34.15;8.57;;;;;;;;;;5071701;28;20021;-80
2021/06/24 10:14:45;;;;;;;33.80;8.52;;;;;;;;;;5049134;28;20037;-79
2021/06/24 10:17:11;;;;;;;36.65;8.40;;;;;;;;;;5067236;28;20037;-70
2021/06/24 10:19:38;;;;;;;37.03;8.27;;;;;;;;;;5066225;28;20047;-71
2021/06/24 10:22:12;;;;;;;36.17;8.88;;;;;;;;;;5069028;28;20458;-76
2021/06/24 10:24:49;;;;;;;33.53;9.55;;;;;;;;;;5065378;28;20040;-67
2021/06/24 10:27:15;;;;;;;40.53;9.18;;;;;;;;;;5072308;28;20472;-74
2021/06/24 10:29:43;;;;;;;38.85;9.27;;;;;;;;;;5072444;28;20027;-77
2021/06/24 10:32:22;;;;;;;51.47;10.15;;;;;;;;;;5072450;28;20410;-69
2021/06/24 10:34:49;;;;;;;44.75;10.43;;;;;;;;;;5070245;28;20025;-68
2021/06/24 10:37:21;;;;;;;42.03;9.63;;;;;;;;;;5069067;28;20060;-81
2021/06/24 10:39:47;;;;;;;35.10;9.07;;;;;;;;;;5069337;28;20047;-80
2021/06/24 10:42:17;;;;;;;38.90;8.50;;;;;;;;;;5069333;28;20064;-79
2021/06/24 10:44:43;;;;;;;39.08;8.60;;;;;;;;;;5065887;28;20093;-71
2021/06/24 10:47:09;;;;;;;36.22;9.15;;;;;;;;;;5067232;28;20116;-62
2021/06/24 10:49:35;;;;;;;32.05;8.52;;;;;;;;;;5065317;28;20033;-73
2021/06/24 10:52:24;;;;;;;38.53;9.80;;;;;;;;;;5070024;28;20048;-72
2021/06/24 10:54:50;;;;;;;42.65;8.88;;;;;;;;;;5064324;28;20029;-72
2021/06/24 10:57:35;;;;;;;37.55;9.77;;;;;;;;;;5067314;28;20031;-69
2021/06/24 11:00:31;;;;;;;42.47;9.43;;;;;;;;;;5066888;28;20020;-68
2021/06/24 11:03:00;;;;;;;30.75;8.60;;;;;;;;;;5067263;28;20046;-65
2021/06/24 11:05:33;;;;;;;36.88;8.73;;;;;;;;;;5071445;28;20017;-74
2021/06/24 11:07:59;;;;;;;32.92;10.20;;;;;;;;;;5049691;28;20400;-73
2021/06/24 11:10:27;;;;;;;36.40;8.77;;;;;;;;;;5076015;28;20096;-73
2021/06/24 11:12:56;;;;;;;42.58;9.75;;;;;;;;;;5068879;28;20056;-68
2021/06/24 11:15:41;;;;;;;35.67;9.45;;;;;;;;;;5071645;28;20020;-66
2021/06/24 11:18:07;;;;;;;43.35;9.02;;;;;;;;;;5066687;28;20027;-68
2021/06/24 11:20:42;;;;;;;41.03;9.45;;;;;;;;;;5075031;28;20486;-77
2021/06/24 11:23:28;;;;;;;35.88;8.52;;;;;;;;;;5072648;28;20097;-77
2021/06/24 11:26:06;;;;;;;33.47;8.73;;;;;;;;;;5049008;28;20504;-69
2021/06/24 11:28:51;;;;;;;40.47;8.55;;;;;;;;;;5066708;28;20558;-69
2021/06/24 11:31:21;;;;;;;44.33;10.23;;;;;;;;;;5060231;28;20040;-71
2021/06/24 11:33:59;;;;;;;46.28;9.93;;;;;;;;;;5044235;28;20020;-70
2021/06/24 11:36:25;;;;;;;42.17;9.52;;;;;;;;;;5065698;28;20502;-68
2021/06/24 11:38:51;;;;;;;50.88;9.65;;;;;;;;;;5066721;28;20090;-64
2021/06/24 11:41:21;;;;;;;44.08;10.02;;;;;;;;;;5066564;28;20028;-70
2021/06/24 11:44:02;;;;;;;45.65;9.63;;;;;;;;;;5064376;28;20024;-70
2021/06/24 11:46:29;;;;;;;45.10;9.32;;;;;;;;;;5075035;28;20024;-66
2021/06/24 11:49:09;;;;;;;45.22;10.02;;;;;;;;;;5066194;28;20441;-65
2021/06/24 12:05:04;;;;;;;38.63;9.60;;;;;;;;;;5068937;28;20021;-70
2021/06/24 12:07:37;;;;;;;47.78;9.80;;;;;;;;;;5072568;28;20425;-66
2021/06/24 12:10:04;;;;;;;36.22;9.20;;;;;;;;;;5063523;28;20017;-70
2021/06/24 12:12:32;;;;;;;35.70;9.00;;;;;;;;;;5069518;28;20023;-67
2021/06/24 12:15:01;;;;;;;41.17;9.48;;;;;;;;;;5063971;28;20025;-71
2021/06/24 12:17:32;;;;;;;36.85;9.25;;;;;;;;;;5066685;28;20052;-69
2021/06/24 12:20:03;;;;;;;41.28;9.40;;;;;;;;;;5065695;28;21046;-73
2021/06/24 12:22:36;;;;;;;46.53;9.65;;;;;;;;;;5068715;28;20403;-69
2021/06/24 12:25:10;;;;;;;48.38;9.98;;;;;;;;;;5063347;28;20055;-66
2021/06/24 12:27:37;;;;;;;53.60;9.75;;;;;;;;;;5065932;28;20037;-70
2021/06/24 12:30:10;;;;;;;42.47;9.40;;;;;;;;;;5062992;28;20108;-67
2021/06/24 12:32:37;;;;;;;43.00;9.60;;;;;;;;;;5066059;28;20025;-72
2021/06/24 12:35:03;;;;;;;39.35;9.38;;;;;;;;;;5072548;28;20378;-64
2021/06/24 12:37:42;;;;;;;43.75;9.90;;;;;;;;;;5066943;28;20528;-72
2021/06/24 12:40:11;;;;;;;38.28;8.98;;;;;;;;;;5067891;28;20032;-73
2021/06/24 12:42:49;;;;;;;40.22;9.30;;;;;;;;;;5065951;28;20419;-74
2021/06/24 12:45:16;;;;;;;54.70;10.30;;;;;;;;;;5067626;28;20021;-68
2021/06/24 12:47:44;;;;;;;45.35;9.25;;;;;;;;;;5072273;28;20036;-68
2021/06/24 12:50:15;;;;;;;45.35;9.82;;;;;;;;;;5048732;28;20032;-72
2021/06/24 12:52:44;;;;;;;41.10;9.45;;;;;;;;;;5069664;28;20116;-71
2021/06/24 12:55:31;;;;;;;40.90;8.82;;;;;;;;;;5072362;28;20032;-73
2021/06/24 12:57:59;;;;;;;53.45;10.10;;;;;;;;;;5070030;28;20055;-68
2021/06/24 13:00:26;;;;;;;39.65;9.75;;;;;;;;;;5071180;28;20027;-64
2021/06/24 13:02:52;;;;;;;44.90;9.45;;;;;;;;;;5073611;28;20123;-64
2021/06/24 13:05:24;;;;;;;54.47;9.93;;;;;;;;;;5067982;28;20023;-71
2021/06/24 13:07:50;;;;;;;;;;;;;;;;;;5068785;28;20070;-70
2021/06/24 13:10:16;;;;;;;48.08;10.13;;;;;;;;;;5072270;28;19912;-80
2021/06/24 13:12:48;;;;;;;41.63;9.23;;;;;;;;;;5071781;28;20493;-70
2021/06/24 13:15:29;;;;;;;51.13;9.98;;;;;;;;;;5052267;28;20060;-74
2021/06/24 13:17:58;;;;;;;37.55;9.15;;;;;;;;;;5070166;28;20028;-83
2021/06/24 13:20:24;;;;;;;45.85;9.85;;;;;;;;;;5068061;28;20414;-69
2021/06/24 13:22:50;;;;;;;41.65;9.45;;;;;;;;;;5071510;28;20489;-74
2021/06/24 13:25:21;;;;;;;44.90;10.05;;;;;;;;;;5072974;28;20355;-76
2021/06/24 13:27:47;;;;;;;43.67;10.02;;;;;;;;;;5055448;28;20148;-76
2021/06/24 13:30:14;;;;;;;44.25;9.98;;;;;;;;;;5067594;28;20032;-76
2021/06/24 13:32:40;;;;;;;48.70;9.45;;;;;;;;;;5074642;28;20485;-76
2021/06/24 13:35:26;;;;;;;38.08;8.82;;;;;;;;;;5080485;28;20028;-77
2021/06/24 13:37:56;;;;;;;42.00;9.10;;;;;;;;;;5079141;28;20052;-69
2021/06/24 13:40:29;;;;;;;42.92;8.65;;;;;;;;;;5075573;28;20032;-72
2021/06/24 13:42:57;;;;;;;45.55;9.25;;;;;;;;;;5068754;28;20036;-72
2021/06/24 13:45:23;;;;;;;41.30;9.30;;;;;;;;;;5067258;28;20028;-73
2021/06/24 13:47:49;;;;;;;39.45;9.95;;;;;;;;;;5067816;28;20575;-77
2021/06/24 13:50:15;;;;;;;42.70;10.38;;;;;;;;;;5053918;28;20195;-78
2021/06/24 13:52:42;;;;;;;42.67;10.65;;;;;;;;;;5075748;28;20107;-74
2021/06/24 13:55:08;;;;;;;41.40;9.40;;;;;;;;;;5072840;28;20040;-78
2021/06/24 13:57:34;;;;;;;46.08;9.70;;;;;;;;;;5073006;28;20028;-87
2021/06/24 14:00:00;;;;;;;43.53;9.85;;;;;;;;;;5051243;28;20063;-73
2021/06/24 14:02:26;;;;;;;44.08;8.98;;;;;;;;;;5069585;28;20517;-73
2021/06/24 14:04:52;;;;;;;50.78;10.40;;;;;;;;;;5061307;28;20017;-74
2021/06/24 14:07:21;;;;;;;41.92;10.27;;;;;;;;;;5068564;28;20035;-74
2021/06/24 14:09:48;;;;;;;40.05;9.45;;;;;;;;;;5068538;28;20025;-74
2021/06/24 14:12:14;;;;;;;39.35;8.95;;;;;;;;;;5065531;28;20178;-72
2021/06/24 14:14:40;;;;;;;44.55;9.77;;;;;;;;;;5069908;28;20085;-68
2021/06/24 14:17:08;;;;;;;49.35;10.15;;;;;;;;;;5078175;28;20534;-71
2021/06/24 14:19:34;;;;;;;40.13;10.20;;;;;;;;;;5077902;28;20093;-76
2021/06/24 14:22:03;;;;;;;46.58;9.93;;;;;;;;;;5072530;28;20040;-77
2021/06/24 14:24:30;;;;;;;43.75;9.50;;;;;;;;;;5069739;28;20047;-71
2021/06/24 14:26:57;;;;;;;43.95;10.98;;;;;;;;;;5080487;28;20054;-68
2021/06/24 14:29:24;;;;;;;39.80;9.40;;;;;;;;;;5067524;28;20027;-66
2021/06/24 14:31:51;;;;;;;39.70;10.63;;;;;;;;;;5072891;28;20031;-65
2021/06/24 14:34:18;;;;;;;41.33;10.07;;;;;;;;;;5057889;28;20044;-66
2021/06/24 14:36:44;;;;;;;40.17;9.07;;;;;;;;;;5067266;28;20470;-69
2021/06/24 14:39:12;;;;;;;45.03;10.30;;;;;;;;;;5069517;28;20028;-69
2021/06/24 14:41:38;;;;;;;45.60;10.07;;;;;;;;;;5061872;28;20021;-66
2021/06/24 14:44:04;;;;;;;48.97;9.60;;;;;;;;;;5076794;28;20028;-73